createdAt,value
2018-03-23T00:00:36.778Z,6.72
2018-03-23T00:01:36.794Z,6.78
2018-03-23T00:02:36.810Z,6.74
2018-03-23T00:03:36.803Z,6.78
2018-03-23T00:04:36.819Z,6.75
2018-03-23T00:05:36.827Z,6.72
2018-03-23T00:06:36.838Z,6.78
2018-03-23T00:07:36.850Z,6.75
2018-03-23T00:08:36.855Z,6.77
2018-03-23T00:09:36.303Z,6.78
2018-03-23T00:10:36.315Z,6.75
2018-03-23T00:11:36.613Z,6.77
2018-03-23T00:12:36.619Z,6.79
2018-03-23T00:13:36.627Z,6.75
2018-03-23T00:14:36.974Z,6.78
2018-03-23T00:15:36.652Z,6.78
2018-03-23T00:16:36.666Z,6.75
2018-03-23T00:17:36.965Z,6.75
2018-03-23T00:18:36.983Z,6.75
2018-03-23T00:19:36.463Z,6.77
2018-03-23T00:20:36.709Z,6.79
2018-03-23T00:21:37.001Z,6.79
2018-03-23T00:22:37.015Z,6.78
2018-03-23T00:23:37.025Z,6.72
2018-03-23T00:24:36.755Z,6.74
2018-03-23T00:25:37.089Z,6.77
2018-03-23T00:26:36.782Z,6.77
2018-03-23T00:27:37.068Z,6.79
2018-03-23T00:28:36.798Z,6.78
2018-03-23T00:29:37.090Z,6.78
2018-03-23T00:30:36.533Z,6.74
2018-03-23T00:31:37.111Z,6.79
2018-03-23T00:32:36.840Z,6.69
2018-03-23T00:33:37.134Z,6.78
2018-03-23T00:34:37.141Z,6.77
2018-03-23T00:35:37.163Z,6.79
2018-03-23T00:36:36.881Z,6.77
2018-03-23T00:37:37.173Z,6.79
2018-03-23T00:38:36.901Z,6.74
2018-03-23T00:39:36.916Z,6.77
2018-03-23T00:40:36.924Z,6.75
2018-03-23T00:41:37.228Z,6.82
2018-03-23T00:42:36.949Z,6.77
2018-03-23T00:43:36.963Z,6.77
2018-03-23T00:44:37.310Z,6.77
2018-03-23T00:45:36.979Z,6.84
2018-03-23T00:46:36.993Z,6.74
2018-03-23T00:47:37.288Z,6.82
2018-03-23T00:48:37.302Z,6.77
2018-03-23T00:49:37.363Z,6.82
2018-03-23T00:50:37.324Z,6.79
2018-03-23T00:51:37.334Z,6.81
2018-03-23T00:52:37.339Z,6.78
2018-03-23T00:53:37.076Z,6.72
2018-03-23T00:54:37.405Z,6.75
2018-03-23T00:55:37.105Z,6.82
2018-03-23T00:56:37.100Z,6.78
2018-03-23T00:57:37.113Z,6.82
2018-03-23T00:58:37.124Z,6.84
2018-03-23T00:59:37.531Z,6.79
2018-03-23T01:00:37.149Z,6.75
2018-03-23T01:01:37.154Z,6.82
2018-03-23T01:02:36.886Z,6.74
2018-03-23T01:03:37.177Z,6.79
2018-03-23T01:04:37.474Z,6.84
2018-03-23T01:05:37.480Z,6.78
2018-03-23T01:06:37.575Z,6.81
2018-03-23T01:07:37.508Z,6.79
2018-03-23T01:08:37.252Z,6.77
2018-03-23T01:09:37.535Z,6.77
2018-03-23T01:10:37.540Z,6.74
2018-03-23T01:11:37.551Z,6.81
2018-03-23T01:12:36.994Z,6.81
2018-03-23T01:13:37.009Z,6.81
2018-03-23T01:14:37.419Z,6.81
2018-03-23T01:15:37.318Z,6.74
2018-03-23T01:16:37.605Z,6.84
2018-03-23T01:17:37.623Z,6.81
2018-03-23T01:18:37.353Z,6.81
2018-03-23T01:19:37.070Z,6.74
2018-03-23T01:20:37.667Z,6.77
2018-03-23T01:21:37.379Z,6.81
2018-03-23T01:22:37.388Z,6.84
2018-03-23T01:23:37.395Z,6.81
2018-03-23T01:24:37.413Z,6.82
2018-03-23T01:25:37.702Z,6.87
2018-03-23T01:26:37.714Z,6.79
2018-03-23T01:27:37.726Z,6.84
2018-03-23T01:28:37.174Z,6.84
2018-03-23T01:29:37.468Z,6.81
2018-03-23T01:30:37.771Z,6.82
2018-03-23T01:31:37.776Z,6.84
2018-03-23T01:32:37.499Z,6.82
2018-03-23T01:33:37.514Z,6.82
2018-03-23T01:34:37.533Z,6.84
2018-03-23T01:35:37.816Z,6.82
2018-03-23T01:36:37.609Z,6.82
2018-03-23T01:37:37.558Z,6.82
2018-03-23T01:38:37.566Z,6.81
2018-03-23T01:39:37.859Z,6.82
2018-03-23T01:40:37.588Z,6.82
2018-03-23T01:41:37.612Z,6.84
2018-03-23T01:42:37.894Z,6.77
2018-03-23T01:43:37.904Z,6.78
2018-03-23T01:44:37.919Z,6.92
2018-03-23T01:45:37.926Z,6.88
2018-03-23T01:46:37.659Z,6.81
2018-03-23T01:47:37.665Z,6.81
2018-03-23T01:48:37.963Z,6.85
2018-03-23T01:49:37.978Z,6.77
2018-03-23T01:50:37.694Z,6.84
2018-03-23T01:51:37.427Z,6.82
2018-03-23T01:52:38.010Z,6.82
2018-03-23T01:53:38.010Z,6.87
2018-03-23T01:54:38.028Z,6.78
2018-03-23T01:55:38.034Z,6.79
2018-03-23T01:56:38.048Z,6.79
2018-03-23T01:57:37.783Z,6.85
2018-03-23T01:58:37.785Z,6.79
2018-03-23T01:59:37.514Z,6.82
2018-03-23T02:00:37.809Z,6.85
2018-03-23T02:01:38.103Z,6.84
2018-03-23T02:02:38.111Z,6.84
2018-03-23T02:03:37.839Z,6.88
2018-03-23T02:04:37.567Z,6.87
2018-03-23T02:05:38.148Z,6.85
2018-03-23T02:06:38.158Z,6.92
2018-03-23T02:07:37.884Z,6.85
2018-03-23T02:08:38.182Z,6.89
2018-03-23T02:09:37.628Z,6.88
2018-03-23T02:10:38.204Z,6.92
2018-03-23T02:11:37.927Z,6.84
2018-03-23T02:12:37.933Z,6.84
2018-03-23T02:13:37.947Z,6.82
2018-03-23T02:14:37.956Z,6.84
2018-03-23T02:15:37.970Z,6.82
2018-03-23T02:16:38.261Z,6.89
2018-03-23T02:17:38.272Z,6.82
2018-03-23T02:18:38.290Z,6.89
2018-03-23T02:19:38.016Z,6.81
2018-03-23T02:20:38.074Z,6.87
2018-03-23T02:21:38.413Z,6.92
2018-03-23T02:22:38.052Z,6.85
2018-03-23T02:23:38.341Z,6.88
2018-03-23T02:24:38.370Z,6.85
2018-03-23T02:25:38.377Z,6.89
2018-03-23T02:26:38.091Z,6.93
2018-03-23T02:27:37.818Z,6.88
2018-03-23T02:28:38.134Z,6.87
2018-03-23T02:29:38.406Z,6.82
2018-03-23T02:30:38.141Z,6.87
2018-03-23T02:31:38.433Z,6.85
2018-03-23T02:32:38.447Z,6.87
2018-03-23T02:33:38.463Z,6.88
2018-03-23T02:34:38.473Z,6.89
2018-03-23T02:35:37.909Z,6.85
2018-03-23T02:36:38.498Z,6.87
2018-03-23T02:37:38.495Z,6.88
2018-03-23T02:38:38.510Z,6.87
2018-03-23T02:39:38.238Z,6.89
2018-03-23T02:40:38.529Z,6.88
2018-03-23T02:41:37.973Z,6.88
2018-03-23T02:42:38.554Z,6.82
2018-03-23T02:43:38.290Z,6.87
2018-03-23T02:44:38.301Z,6.88
2018-03-23T02:45:38.030Z,6.89
2018-03-23T02:46:38.314Z,6.85
2018-03-23T02:47:38.606Z,6.89
2018-03-23T02:48:38.623Z,6.89
2018-03-23T02:49:38.645Z,6.84
2018-03-23T02:50:38.648Z,6.88
2018-03-23T02:51:38.369Z,6.88
2018-03-23T02:52:38.660Z,6.95
2018-03-23T02:53:38.676Z,6.93
2018-03-23T02:54:38.745Z,6.92
2018-03-23T02:55:38.695Z,6.93
2018-03-23T02:56:38.423Z,6.88
2018-03-23T02:57:38.721Z,6.92
2018-03-23T02:58:38.732Z,6.92
2018-03-23T02:59:38.745Z,6.93
2018-03-23T03:00:38.477Z,6.93
2018-03-23T03:01:38.528Z,6.87
2018-03-23T03:02:38.775Z,6.92
2018-03-23T03:03:38.799Z,6.87
2018-03-23T03:04:38.512Z,6.88
2018-03-23T03:05:38.809Z,6.93
2018-03-23T03:06:38.835Z,6.89
2018-03-23T03:07:38.553Z,6.95
2018-03-23T03:08:38.837Z,6.95
2018-03-23T03:09:38.853Z,6.93
2018-03-23T03:10:38.865Z,6.89
2018-03-23T03:11:38.870Z,6.88
2018-03-23T03:12:38.598Z,6.99
2018-03-23T03:13:38.897Z,6.92
2018-03-23T03:14:38.621Z,6.95
2018-03-23T03:15:38.633Z,6.89
2018-03-23T03:16:38.984Z,6.93
2018-03-23T03:17:38.944Z,6.93
2018-03-23T03:18:38.664Z,6.93
2018-03-23T03:19:38.959Z,6.96
2018-03-23T03:20:38.975Z,6.95
2018-03-23T03:21:39.032Z,6.92
2018-03-23T03:22:38.992Z,6.95
2018-03-23T03:23:39.004Z,6.93
2018-03-23T03:24:38.456Z,6.92
2018-03-23T03:25:39.032Z,6.89
2018-03-23T03:26:38.756Z,6.95
2018-03-23T03:27:38.770Z,6.97
2018-03-23T03:28:39.077Z,6.92
2018-03-23T03:29:39.070Z,6.89
2018-03-23T03:30:38.518Z,6.95
2018-03-23T03:31:39.102Z,6.93
2018-03-23T03:32:38.825Z,6.93
2018-03-23T03:33:38.832Z,6.95
2018-03-23T03:34:38.564Z,6.93
2018-03-23T03:35:39.140Z,6.95
2018-03-23T03:36:39.147Z,6.95
2018-03-23T03:37:39.160Z,6.95
2018-03-23T03:38:39.173Z,6.92
2018-03-23T03:39:38.899Z,6.96
2018-03-23T03:40:38.630Z,6.92
2018-03-23T03:41:38.969Z,6.92
2018-03-23T03:42:39.218Z,6.97
2018-03-23T03:43:39.257Z,6.92
2018-03-23T03:44:39.239Z,6.95
2018-03-23T03:45:38.964Z,6.95
2018-03-23T03:46:39.305Z,6.93
2018-03-23T03:47:39.269Z,6.96
2018-03-23T03:48:39.281Z,6.88
2018-03-23T03:49:39.009Z,6.88
2018-03-23T03:50:39.303Z,6.92
2018-03-23T03:51:39.034Z,6.97
2018-03-23T03:52:39.336Z,6.89
2018-03-23T03:53:39.054Z,6.88
2018-03-23T03:54:38.811Z,6.95
2018-03-23T03:55:39.365Z,6.93
2018-03-23T03:56:39.084Z,6.92
2018-03-23T03:57:39.097Z,6.89
2018-03-23T03:58:39.400Z,6.92
2018-03-23T03:59:39.123Z,6.96
2018-03-23T04:00:39.414Z,6.93
2018-03-23T04:01:39.422Z,6.93
2018-03-23T04:02:39.433Z,6.96
2018-03-23T04:03:39.161Z,6.87
2018-03-23T04:04:39.460Z,6.89
2018-03-23T04:05:38.903Z,6.97
2018-03-23T04:06:38.915Z,6.92
2018-03-23T04:07:39.208Z,6.88
2018-03-23T04:08:39.520Z,6.93
2018-03-23T04:09:39.235Z,6.92
2018-03-23T04:10:39.246Z,6.88
2018-03-23T04:11:39.587Z,6.88
2018-03-23T04:12:39.263Z,6.92
2018-03-23T04:13:39.561Z,6.88
2018-03-23T04:14:39.607Z,6.92
2018-03-23T04:15:39.582Z,6.93
2018-03-23T04:16:39.024Z,6.96
2018-03-23T04:17:39.037Z,6.92
2018-03-23T04:18:39.615Z,6.85
2018-03-23T04:19:39.361Z,6.89
2018-03-23T04:20:39.349Z,6.95
2018-03-23T04:21:39.088Z,6.92
2018-03-23T04:22:39.656Z,6.96
2018-03-23T04:23:39.673Z,6.92
2018-03-23T04:24:39.395Z,6.89
2018-03-23T04:25:39.689Z,6.88
2018-03-23T04:26:39.138Z,6.92
2018-03-23T04:27:39.714Z,6.88
2018-03-23T04:28:39.440Z,6.89
2018-03-23T04:29:39.735Z,6.92
2018-03-23T04:30:39.463Z,6.97
2018-03-23T04:31:39.486Z,6.95
2018-03-23T04:32:39.771Z,7.05
2018-03-23T04:33:39.495Z,6.92
2018-03-23T04:34:39.508Z,7.05
2018-03-23T04:35:39.803Z,7
2018-03-23T04:36:39.819Z,6.92
2018-03-23T04:37:39.540Z,7
2018-03-23T04:38:39.833Z,6.92
2018-03-23T04:39:39.572Z,6.99
2018-03-23T04:40:39.859Z,7.05
2018-03-23T04:41:39.586Z,6.99
2018-03-23T04:42:39.880Z,6.93
2018-03-23T04:43:39.897Z,6.92
2018-03-23T04:44:39.620Z,6.92
2018-03-23T04:45:39.912Z,7.03
2018-03-23T04:46:39.929Z,7.02
2018-03-23T04:47:39.935Z,6.99
2018-03-23T04:48:39.955Z,7.03
2018-03-23T04:49:39.677Z,6.92
2018-03-23T04:50:39.967Z,7.05
2018-03-23T04:51:39.697Z,6.95
2018-03-23T04:52:39.709Z,7.03
2018-03-23T04:53:40.012Z,7.06
2018-03-23T04:54:40.015Z,7.11
2018-03-23T04:55:39.750Z,7.02
2018-03-23T04:56:40.044Z,7.05
2018-03-23T04:57:39.770Z,7.03
2018-03-23T04:58:40.065Z,7.07
2018-03-23T04:59:40.072Z,7.07
2018-03-23T05:00:39.798Z,7.11
2018-03-23T05:01:40.099Z,7.03
2018-03-23T05:02:40.110Z,7.05
2018-03-23T05:03:39.839Z,7.03
2018-03-23T05:04:39.844Z,7.06
2018-03-23T05:05:39.858Z,7.03
2018-03-23T05:06:39.865Z,7.05
2018-03-23T05:07:39.594Z,7.05
2018-03-23T05:08:40.170Z,7.02
2018-03-23T05:09:40.186Z,7.03
2018-03-23T05:10:39.913Z,7.03
2018-03-23T05:11:39.645Z,7.07
2018-03-23T05:12:39.647Z,7.07
2018-03-23T05:13:40.225Z,7.06
2018-03-23T05:14:40.043Z,7.07
2018-03-23T05:15:39.965Z,7.07
2018-03-23T05:16:40.257Z,7
2018-03-23T05:17:39.994Z,7.03
2018-03-23T05:18:39.998Z,7.03
2018-03-23T05:19:40.294Z,7.1
2018-03-23T05:20:40.024Z,7.06
2018-03-23T05:21:40.318Z,7.13
2018-03-23T05:22:40.062Z,7
2018-03-23T05:23:40.052Z,7.06
2018-03-23T05:24:40.066Z,7.03
2018-03-23T05:25:40.087Z,7.13
2018-03-23T05:26:40.093Z,7.02
2018-03-23T05:27:40.100Z,7
2018-03-23T05:28:40.115Z,7.13
2018-03-23T05:29:40.407Z,7.03
2018-03-23T05:30:40.413Z,7.14
2018-03-23T05:31:40.220Z,7.11
2018-03-23T05:32:40.730Z,7.07
2018-03-23T05:33:40.646Z,7.1
2018-03-23T05:34:40.480Z,7.06
2018-03-23T05:35:40.485Z,7.05
2018-03-23T05:36:40.490Z,7.06
2018-03-23T05:37:40.495Z,7.13
2018-03-23T05:38:40.222Z,7.11
2018-03-23T05:39:40.232Z,7.06
2018-03-23T05:40:40.333Z,7.07
2018-03-23T05:41:39.976Z,7.11
2018-03-23T05:42:40.549Z,7.06
2018-03-23T05:43:40.344Z,7.2
2018-03-23T05:44:40.008Z,7.17
2018-03-23T05:45:40.113Z,7.1
2018-03-23T05:46:40.312Z,7.17
2018-03-23T05:47:40.607Z,7.17
2018-03-23T05:48:40.333Z,7.15
2018-03-23T05:49:40.625Z,7.18
2018-03-23T05:50:40.646Z,7.17
2018-03-23T05:51:40.650Z,7.11
2018-03-23T05:52:40.659Z,7.17
2018-03-23T05:53:40.675Z,7.14
2018-03-23T05:54:40.679Z,7.15
2018-03-23T05:55:40.700Z,7.15
2018-03-23T05:56:40.424Z,7.18
2018-03-23T05:57:40.502Z,7.14
2018-03-23T05:58:40.730Z,7.17
2018-03-23T05:59:40.763Z,7.14
2018-03-23T06:00:40.467Z,7.15
2018-03-23T06:01:40.682Z,7.14
2018-03-23T06:02:40.542Z,7.17
2018-03-23T06:03:40.500Z,7.18
2018-03-23T06:04:40.803Z,7.2
2018-03-23T06:05:40.806Z,7.13
2018-03-23T06:06:40.253Z,7.17
2018-03-23T06:07:40.555Z,7.23
2018-03-23T06:08:40.575Z,7.18
2018-03-23T06:09:40.917Z,7.2
2018-03-23T06:10:40.865Z,7.21
2018-03-23T06:11:40.882Z,7.18
2018-03-23T06:12:40.886Z,7.21
2018-03-23T06:13:40.897Z,7.17
2018-03-23T06:14:40.630Z,7.17
2018-03-23T06:15:40.637Z,7.21
2018-03-23T06:16:40.648Z,7.23
2018-03-23T06:17:40.769Z,7.24
2018-03-23T06:18:40.482Z,7.21
2018-03-23T06:19:40.963Z,7.23
2018-03-23T06:20:40.983Z,7.28
2018-03-23T06:21:40.704Z,7.2
2018-03-23T06:22:41.103Z,7.2
2018-03-23T06:23:41.008Z,7.24
2018-03-23T06:24:40.742Z,7.21
2018-03-23T06:25:40.749Z,7.24
2018-03-23T06:26:41.045Z,7.2
2018-03-23T06:27:40.770Z,7.29
2018-03-23T06:28:41.068Z,7.31
2018-03-23T06:29:40.517Z,7.28
2018-03-23T06:30:41.090Z,7.21
2018-03-23T06:31:41.097Z,7.28
2018-03-23T06:32:40.831Z,7.21
2018-03-23T06:33:40.555Z,7.33
2018-03-23T06:34:41.137Z,7.31
2018-03-23T06:35:41.155Z,7.31
2018-03-23T06:36:41.157Z,7.28
2018-03-23T06:37:41.170Z,7.28
2018-03-23T06:38:40.909Z,7.29
2018-03-23T06:39:41.385Z,7.31
2018-03-23T06:40:40.919Z,7.31
2018-03-23T06:41:41.235Z,7.33
2018-03-23T06:42:41.224Z,7.32
2018-03-23T06:43:40.962Z,7.28
2018-03-23T06:44:40.965Z,7.29
2018-03-23T06:45:40.983Z,7.36
2018-03-23T06:46:40.994Z,7.25
2018-03-23T06:47:41.281Z,7.36
2018-03-23T06:48:41.080Z,7.31
2018-03-23T06:49:41.023Z,7.36
2018-03-23T06:50:40.747Z,7.36
2018-03-23T06:51:41.043Z,7.36
2018-03-23T06:52:40.771Z,7.38
2018-03-23T06:53:41.065Z,7.43
2018-03-23T06:54:41.359Z,7.42
2018-03-23T06:55:41.375Z,7.4
2018-03-23T06:56:41.381Z,7.4
2018-03-23T06:57:41.362Z,7.39
2018-03-23T06:58:41.410Z,7.43
2018-03-23T06:59:40.852Z,7.36
2018-03-23T07:00:41.444Z,7.42
2018-03-23T07:01:41.163Z,7.5
2018-03-23T07:02:41.176Z,7.47
2018-03-23T07:03:41.523Z,7.5
2018-03-23T07:04:41.482Z,7.5
2018-03-23T07:05:41.204Z,7.47
2018-03-23T07:06:41.211Z,7.48
2018-03-23T07:07:41.512Z,7.5
2018-03-23T07:08:41.523Z,7.54
2018-03-23T07:09:41.248Z,7.53
2018-03-23T07:10:41.542Z,7.51
2018-03-23T07:11:41.271Z,7.51
2018-03-23T07:12:41.292Z,7.53
2018-03-23T07:13:41.312Z,7.53
2018-03-23T07:14:41.308Z,7.53
2018-03-23T07:15:41.649Z,7.57
2018-03-23T07:16:41.610Z,7.48
2018-03-23T07:17:41.624Z,7.57
2018-03-23T07:18:41.642Z,7.48
2018-03-23T07:19:41.648Z,7.66
2018-03-23T07:20:41.378Z,7.66
2018-03-23T07:21:41.385Z,7.63
2018-03-23T07:22:41.116Z,7.6
2018-03-23T07:23:41.408Z,7.66
2018-03-23T07:24:41.136Z,7.6
2018-03-23T07:25:41.150Z,7.63
2018-03-23T07:26:41.445Z,7.6
2018-03-23T07:27:41.737Z,7.63
2018-03-23T07:28:41.532Z,7.6
2018-03-23T07:29:41.481Z,7.69
2018-03-23T07:30:41.770Z,7.67
2018-03-23T07:31:41.783Z,7.69
2018-03-23T07:32:41.794Z,7.72
2018-03-23T07:33:41.578Z,7.72
2018-03-23T07:34:41.541Z,7.73
2018-03-23T07:35:41.832Z,7.73
2018-03-23T07:36:41.557Z,7.69
2018-03-23T07:37:41.927Z,7.7
2018-03-23T07:38:41.868Z,7.73
2018-03-23T07:39:41.600Z,7.83
2018-03-23T07:40:41.606Z,7.77
2018-03-23T07:41:41.334Z,7.79
2018-03-23T07:42:41.631Z,7.8
2018-03-23T07:43:41.691Z,7.8
2018-03-23T07:44:41.650Z,7.88
2018-03-23T07:45:41.951Z,7.93
2018-03-23T07:46:41.955Z,7.95
2018-03-23T07:47:41.689Z,7.93
2018-03-23T07:48:41.989Z,7.91
2018-03-23T07:49:42.025Z,7.88
2018-03-23T07:50:41.725Z,8
2018-03-23T07:51:41.730Z,7.98
2018-03-23T07:52:41.759Z,7.98
2018-03-23T07:53:41.758Z,8
2018-03-23T07:54:41.767Z,8
2018-03-23T07:55:42.065Z,8.05
2018-03-23T07:56:42.071Z,8.09
2018-03-23T07:57:41.521Z,8.08
2018-03-23T07:58:41.822Z,8.06
2018-03-23T07:59:42.111Z,8.09
2018-03-23T08:00:42.123Z,8.1
2018-03-23T08:01:41.850Z,8.12
2018-03-23T08:02:42.144Z,8.18
2018-03-23T08:03:42.060Z,8.18
2018-03-23T08:04:42.169Z,8.27
2018-03-23T08:05:41.896Z,8.19
2018-03-23T08:06:41.909Z,8.19
2018-03-23T08:07:42.208Z,8.24
2018-03-23T08:08:41.933Z,8.23
2018-03-23T08:09:42.228Z,8.2
2018-03-23T08:10:42.251Z,8.31
2018-03-23T08:11:41.970Z,8.34
2018-03-23T08:12:41.979Z,8.36
2018-03-23T08:13:42.046Z,8.33
2018-03-23T08:14:42.291Z,8.37
2018-03-23T08:15:42.016Z,8.34
2018-03-23T08:16:42.035Z,8.37
2018-03-23T08:17:42.041Z,8.34
2018-03-23T08:18:42.109Z,8.42
2018-03-23T08:19:42.079Z,8.46
2018-03-23T08:20:42.362Z,8.49
2018-03-23T08:21:41.804Z,8.51
2018-03-23T08:22:42.400Z,8.52
2018-03-23T08:23:41.838Z,8.48
2018-03-23T08:24:42.124Z,8.49
2018-03-23T08:25:42.417Z,8.51
2018-03-23T08:26:42.152Z,8.48
2018-03-23T08:27:41.876Z,8.52
2018-03-23T08:28:42.172Z,8.6
2018-03-23T08:29:41.905Z,8.55
2018-03-23T08:30:42.481Z,8.69
2018-03-23T08:31:42.514Z,8.69
2018-03-23T08:32:42.533Z,8.64
2018-03-23T08:33:42.514Z,8.66
2018-03-23T08:34:42.528Z,8.67
2018-03-23T08:35:42.262Z,8.73
2018-03-23T08:36:42.556Z,8.7
2018-03-23T08:37:42.288Z,8.79
2018-03-23T08:38:42.014Z,8.74
2018-03-23T08:39:42.305Z,8.76
2018-03-23T08:40:42.318Z,8.82
2018-03-23T08:41:42.341Z,8.82
2018-03-23T08:42:42.063Z,8.78
2018-03-23T08:43:42.363Z,8.82
2018-03-23T08:44:42.433Z,8.84
2018-03-23T08:45:42.665Z,8.88
2018-03-23T08:46:42.402Z,9.03
2018-03-23T08:47:42.421Z,9.02
2018-03-23T08:48:42.700Z,9.03
2018-03-23T08:49:42.721Z,8.94
2018-03-23T08:50:42.730Z,9.13
2018-03-23T08:51:42.753Z,9.04
2018-03-23T08:52:42.752Z,9.11
2018-03-23T08:53:42.490Z,9.08
2018-03-23T08:54:42.543Z,9.18
2018-03-23T08:55:42.787Z,9.19
2018-03-23T08:56:42.519Z,9.23
2018-03-23T08:57:42.530Z,9.23
2018-03-23T08:58:42.541Z,9.22
2018-03-23T08:59:42.887Z,9.25
2018-03-23T09:00:42.288Z,9.21
2018-03-23T09:01:42.868Z,9.28
2018-03-23T09:02:42.595Z,9.34
2018-03-23T09:03:42.892Z,9.41
2018-03-23T09:04:42.899Z,9.39
2018-03-23T09:05:42.637Z,9.44
2018-03-23T09:06:42.369Z,9.41
2018-03-23T09:07:42.940Z,9.48
2018-03-23T09:08:42.667Z,9.43
2018-03-23T09:09:42.761Z,9.5
2018-03-23T09:10:42.978Z,9.47
2018-03-23T09:11:42.989Z,9.55
2018-03-23T09:12:43.008Z,9.51
2018-03-23T09:13:42.448Z,9.61
2018-03-23T09:14:43.078Z,9.58
2018-03-23T09:15:43.044Z,9.68
2018-03-23T09:16:43.177Z,9.69
2018-03-23T09:17:42.782Z,9.69
2018-03-23T09:18:43.084Z,9.69
2018-03-23T09:19:42.526Z,9.73
2018-03-23T09:20:43.195Z,9.76
2018-03-23T09:21:42.836Z,9.83
2018-03-23T09:22:42.564Z,9.8
2018-03-23T09:23:43.146Z,9.68
2018-03-23T09:24:42.924Z,9.76
2018-03-23T09:25:42.605Z,9.76
2018-03-23T09:26:43.385Z,9.79
2018-03-23T09:27:43.202Z,9.76
2018-03-23T09:28:42.927Z,9.8
2018-03-23T09:29:42.945Z,9.83
2018-03-23T09:30:42.963Z,9.82
2018-03-23T09:31:42.968Z,9.86
2018-03-23T09:32:43.266Z,9.97
2018-03-23T09:33:43.275Z,9.92
2018-03-23T09:34:43.301Z,9.91
2018-03-23T09:35:43.301Z,9.94
2018-03-23T09:36:42.757Z,9.98
2018-03-23T09:37:43.333Z,10.04
2018-03-23T09:38:43.058Z,10.01
2018-03-23T09:39:43.085Z,9.98
2018-03-23T09:40:43.366Z,9.99
2018-03-23T09:41:43.384Z,10.04
2018-03-23T09:42:43.398Z,9.94
2018-03-23T09:43:43.125Z,10.04
2018-03-23T09:44:43.470Z,10.02
2018-03-23T09:45:43.157Z,10.02
2018-03-23T09:46:43.452Z,9.94
2018-03-23T09:47:43.462Z,9.94
2018-03-23T09:48:43.558Z,9.94
2018-03-23T09:49:43.205Z,10.05
2018-03-23T09:50:43.505Z,9.95
2018-03-23T09:51:43.517Z,10.05
2018-03-23T09:52:43.248Z,9.95
2018-03-23T09:53:43.545Z,9.98
2018-03-23T09:54:43.274Z,10.04
2018-03-23T09:55:43.288Z,9.98
2018-03-23T09:56:43.587Z,9.95
2018-03-23T09:57:43.311Z,10.04
2018-03-23T09:58:43.615Z,10.02
2018-03-23T09:59:43.624Z,9.98
2018-03-23T10:00:43.353Z,9.99
2018-03-23T10:01:43.369Z,9.99
2018-03-23T10:02:43.665Z,10.04
2018-03-23T10:03:43.422Z,10.01
2018-03-23T10:04:43.711Z,9.97
2018-03-23T10:05:43.138Z,9.99
2018-03-23T10:06:43.435Z,10.07
2018-03-23T10:07:43.734Z,10.05
2018-03-23T10:08:43.178Z,10.15
2018-03-23T10:09:43.474Z,10.16
2018-03-23T10:10:43.212Z,10.17
2018-03-23T10:11:43.508Z,10.23
2018-03-23T10:12:43.526Z,10.2
2018-03-23T10:13:43.532Z,10.26
2018-03-23T10:14:43.545Z,10.33
2018-03-23T10:15:43.556Z,10.38
2018-03-23T10:16:43.852Z,10.46
2018-03-23T10:17:43.864Z,10.44
2018-03-23T10:18:43.891Z,10.53
2018-03-23T10:19:43.893Z,10.53
2018-03-23T10:20:43.754Z,10.67
2018-03-23T10:21:44.068Z,10.67
2018-03-23T10:22:43.933Z,10.75
2018-03-23T10:23:43.951Z,10.82
2018-03-23T10:24:43.396Z,10.75
2018-03-23T10:25:43.977Z,10.76
2018-03-23T10:26:43.707Z,10.74
2018-03-23T10:27:43.723Z,10.72
2018-03-23T10:28:44.149Z,10.75
2018-03-23T10:29:43.748Z,10.81
2018-03-23T10:30:44.052Z,10.82
2018-03-23T10:31:44.063Z,10.87
2018-03-23T10:32:44.078Z,10.89
2018-03-23T10:33:43.831Z,10.92
2018-03-23T10:34:43.825Z,10.94
2018-03-23T10:35:43.831Z,11.1
2018-03-23T10:36:43.851Z,11.02
2018-03-23T10:37:43.577Z,11.04
2018-03-23T10:38:44.166Z,11.08
2018-03-23T10:39:43.604Z,11.14
2018-03-23T10:40:43.620Z,11.19
2018-03-23T10:41:43.916Z,11.19
2018-03-23T10:42:44.214Z,11.22
2018-03-23T10:43:43.946Z,11.19
2018-03-23T10:44:44.240Z,11.33
2018-03-23T10:45:44.085Z,11.25
2018-03-23T10:46:44.070Z,11.32
2018-03-23T10:47:44.002Z,11.35
2018-03-23T10:48:44.311Z,11.41
2018-03-23T10:49:43.747Z,11.33
2018-03-23T10:50:44.043Z,11.37
2018-03-23T10:51:44.066Z,11.37
2018-03-23T10:52:44.500Z,11.51
2018-03-23T10:53:43.807Z,11.48
2018-03-23T10:54:44.386Z,11.5
2018-03-23T10:55:44.166Z,11.5
2018-03-23T10:56:43.849Z,11.47
2018-03-23T10:57:44.145Z,11.51
2018-03-23T10:58:44.446Z,11.5
2018-03-23T10:59:44.487Z,11.51
2018-03-23T11:00:44.495Z,11.44
2018-03-23T11:01:43.921Z,11.41
2018-03-23T11:02:44.241Z,11.52
2018-03-23T11:03:44.232Z,11.44
2018-03-23T11:04:44.530Z,11.44
2018-03-23T11:05:44.265Z,11.5
2018-03-23T11:06:44.571Z,11.48
2018-03-23T11:07:44.305Z,11.51
2018-03-23T11:08:44.306Z,11.52
2018-03-23T11:09:44.321Z,11.6
2018-03-23T11:10:44.342Z,11.57
2018-03-23T11:11:44.350Z,11.65
2018-03-23T11:12:44.652Z,11.62
2018-03-23T11:13:44.385Z,11.63
2018-03-23T11:14:44.113Z,11.75
2018-03-23T11:15:44.753Z,11.7
2018-03-23T11:16:44.433Z,11.77
2018-03-23T11:17:44.439Z,11.69
2018-03-23T11:18:44.745Z,11.73
2018-03-23T11:19:44.752Z,11.73
2018-03-23T11:20:44.250Z,11.84
2018-03-23T11:21:44.214Z,11.91
2018-03-23T11:22:44.517Z,11.94
2018-03-23T11:23:44.810Z,11.99
2018-03-23T11:24:44.264Z,12.03
2018-03-23T11:25:44.843Z,11.95
2018-03-23T11:26:44.575Z,11.97
2018-03-23T11:27:44.593Z,12.03
2018-03-23T11:28:44.889Z,12.04
2018-03-23T11:29:44.334Z,11.99
2018-03-23T11:30:44.353Z,12.09
2018-03-23T11:31:44.930Z,12.02
2018-03-23T11:32:44.951Z,12
2018-03-23T11:33:44.678Z,12.07
2018-03-23T11:34:44.975Z,12.02
2018-03-23T11:35:44.994Z,12.07
2018-03-23T11:36:45.009Z,12.02
2018-03-23T11:37:45.024Z,12.07
2018-03-23T11:38:44.753Z,12.09
2018-03-23T11:39:45.050Z,12.06
2018-03-23T11:40:45.064Z,12
2018-03-23T11:41:45.098Z,12.09
2018-03-23T11:42:44.530Z,12.09
2018-03-23T11:43:45.110Z,12.09
2018-03-23T11:44:45.213Z,12.12
2018-03-23T11:45:44.858Z,12.15
2018-03-23T11:46:44.870Z,12.2
2018-03-23T11:47:44.885Z,12.09
2018-03-23T11:48:44.902Z,12.04
2018-03-23T11:49:44.635Z,12.12
2018-03-23T11:50:44.702Z,12.04
2018-03-23T11:51:44.955Z,12.15
2018-03-23T11:52:45.261Z,12.1
2018-03-23T11:53:44.699Z,12.04
2018-03-23T11:54:44.990Z,12.17
2018-03-23T11:55:45.009Z,12.07
2018-03-23T11:56:45.028Z,12.12
2018-03-23T11:57:45.040Z,12.03
2018-03-23T11:58:45.057Z,12.06
2018-03-23T11:59:45.354Z,12.09
2018-03-23T12:00:45.421Z,12.09
2018-03-23T12:01:45.394Z,12.18
2018-03-23T12:02:45.409Z,12.17
2018-03-23T12:03:45.424Z,12.09
2018-03-23T12:04:45.146Z,12.06
2018-03-23T12:05:45.170Z,12.06
2018-03-23T12:06:45.465Z,12.09
2018-03-23T12:07:45.481Z,12.18
2018-03-23T12:08:45.487Z,12.07
2018-03-23T12:09:45.222Z,12.09
2018-03-23T12:10:45.548Z,12.13
2018-03-23T12:11:45.251Z,12.22
2018-03-23T12:12:45.553Z,12.2
2018-03-23T12:13:45.284Z,12.27
2018-03-23T12:14:45.299Z,12.27
2018-03-23T12:15:45.597Z,12.28
2018-03-23T12:16:45.334Z,12.22
2018-03-23T12:17:45.626Z,12.43
2018-03-23T12:18:45.643Z,12.36
2018-03-23T12:19:45.091Z,12.39
2018-03-23T12:20:45.731Z,12.42
2018-03-23T12:21:45.408Z,12.35
2018-03-23T12:22:45.720Z,12.35
2018-03-23T12:23:45.436Z,12.39
2018-03-23T12:24:45.454Z,12.35
2018-03-23T12:25:45.184Z,12.29
2018-03-23T12:26:45.199Z,12.46
2018-03-23T12:27:45.782Z,12.46
2018-03-23T12:28:45.539Z,12.37
2018-03-23T12:29:45.528Z,12.36
2018-03-23T12:30:45.837Z,12.37
2018-03-23T12:31:45.845Z,12.35
2018-03-23T12:32:45.862Z,12.36
2018-03-23T12:33:45.874Z,12.4
2018-03-23T12:34:45.906Z,12.45
2018-03-23T12:35:45.908Z,12.4
2018-03-23T12:36:45.919Z,12.36
2018-03-23T12:37:45.942Z,12.27
2018-03-23T12:38:45.390Z,12.37
2018-03-23T12:39:45.687Z,12.42
2018-03-23T12:40:45.702Z,12.4
2018-03-23T12:41:45.769Z,12.31
2018-03-23T12:42:46.019Z,12.4
2018-03-23T12:43:45.758Z,12.45
2018-03-23T12:44:45.764Z,12.46
2018-03-23T12:45:46.125Z,12.55
2018-03-23T12:46:46.127Z,12.62
2018-03-23T12:47:45.811Z,12.6
2018-03-23T12:48:45.541Z,12.65
2018-03-23T12:49:46.122Z,12.67
2018-03-23T12:50:45.889Z,12.79
2018-03-23T12:51:46.271Z,12.76
2018-03-23T12:52:45.885Z,12.8
2018-03-23T12:53:46.190Z,12.86
2018-03-23T12:54:45.639Z,12.98
2018-03-23T12:55:45.941Z,12.97
2018-03-23T12:56:46.233Z,13.09
2018-03-23T12:57:45.683Z,13.13
2018-03-23T12:58:45.987Z,13.16
2018-03-23T12:59:45.994Z,13.16
2018-03-23T13:00:46.020Z,13.22
2018-03-23T13:01:46.082Z,13.35
2018-03-23T13:02:46.044Z,13.35
2018-03-23T13:03:46.504Z,13.44
2018-03-23T13:04:46.079Z,13.46
2018-03-23T13:05:46.096Z,13.5
2018-03-23T13:06:46.456Z,13.53
2018-03-23T13:07:46.413Z,13.62
2018-03-23T13:08:46.435Z,13.62
2018-03-23T13:09:46.156Z,13.6
2018-03-23T13:10:46.452Z,13.7
2018-03-23T13:11:46.472Z,13.65
2018-03-23T13:12:45.920Z,13.74
2018-03-23T13:13:46.502Z,13.75
2018-03-23T13:14:45.976Z,13.79